Ride Results

Windeyer Twilight (07-03-2015)
Ride distance: 80.0 km

Outcomes - Windeyer Twilight (07-03-2015)
Division No. of Entries Retired / DNE Completed Withdrawn Ineligible V/O Percentage Completed
HW 16 - 15 1 - - 93.75%
MW 23 - 21 1 - 1 91.30%
LW 11 - 11 - - - 100.00%
JN 2 - 2 - - - 100.00%
Totals 52 - 49 2 - 1 94.23%
Results - Windeyer Twilight (07-03-2015)
No. Rider Horse Place Time Leg Speeds Total
Km/Hr
H/R bpm
Heavyweight
35 Con Bouzianis Conderosa Sara 1 4:32:00 17.7, 17.5 17.65 33, 41, 48 (Avg:44)
17 John Robertson Karabil Asis 2 5:57:00 14.9, 12.1 13.45 30, 46, 55 (Avg:50)
19 Jack Johnson Sharahd Chemoss 3 6:30:00 14.3, 10.7 12.31 31, 36, 38 (Avg:37)
39 Andrew Jonkers Girilambone Comet 4 (BC) 6:40:00 13.0, 11.1 12.00 31, 42, 46 (Avg:44)
8 Sue Warren Razorback Flash 5 6:50:00 12.2, 11.2 11.71 32, 47, 44 (Avg:45)
42 Brodie Freeman Cedar Ridge Carbine 6 6:52:00 12.3, 11.0 11.65 34, 39, 41 (Avg:40)
46 John Dawson Jon De Le Vismad 7 6:52:01 12.6, 10.8 11.65 31, 38, 44 (Avg:41)
24 Jaymee Ferguson Duce 8 6:52:02 12.6, 10.8 11.65 34, 43, 48 (Avg:45)
4 Steve Broadbent Glendhu Moonshine 9 7:03:00 12.9, 10.0 11.35 38, 42, 44 (Avg:43)
37 Scott Peters Stoodleigh Colonial Boy 10 7:30:01 11.0, 10.3 10.67 32, 40, 44 (Avg:42)
31 Marty Gregson Burren-Dah Lady Isabeau 11 7:47:00 11.4, 9.3 10.28 32, 38, 49 (Avg:43)
30 Chris Geddes Baribo 12 8:16:00 11.7, 8.2 9.68 36, 51, 47 (Avg:49)
29 Jolene Cole Kurrajong Bazinga 13 8:16:01 11.7, 8.2 9.68 34, 39, 49 (Avg:44)
36 Allan Caslick A'Landell Soul 14 8:21:00 10.2, 8.9 9.58 34, 42, 39 (Avg:40)
45 Peter Luthy Mystical Knight 15 9:21:00 9.2, 7.9 8.56 34, 40, 46 (Avg:43)
25 Susan Luthy Mystical Horizon Widthdrawn L1 0:00:00 - - 41, 46 (Avg:46)
Middleweight
13 Simon Bain Akifa Farras Ice 1 (BC) 5:57:00 14.9, 12.1 13.45 34, 41, 46 (Avg:43)
34 Jennifer Gilbertson Webbs Creek Cattle Baron 2 6:05:00 14.2, 12.1 13.15 37, 46, 60 (Avg:53)
43 Camille Le Bourdonnec Cedar Ridge Fire N Gold 3 6:05:02 13.3, 12.9 13.15 33, 45, 49 (Avg:47)
55 Ann English Cinbel-A-Chanele 4 6:31:00 13.7, 11.1 12.28 37, 43, 48 (Avg:45)
26 Stacey Booth-Mollema Littlebanks Woneta 5 6:35:00 10.9, 13.7 12.15 35, 34, 46 (Avg:40)
48 Sonia Bonham Box Hill Bullzeye 6 6:40:00 12.3, 11.6 12.00 29, 42, 53 (Avg:47)
41 Gail Fisher Arasarta Narhalinian 7 6:46:00 13.3, 10.6 11.82 34, 38, 51 (Avg:44)
32 Garry Bennett Misty Heights Romance 8 6:46:01 13.3, 10.6 11.82 29, 38, 40 (Avg:39)
14 Daphne Phillips Bad Boy Bubby 9 6:49:00 13.0, 10.6 11.74 33, 34, 40 (Avg:37)
7 Tayla Warren Warren Park O.B. One 10 6:50:00 12.2, 11.2 11.71 32, 36, 40 (Avg:38)
44 Blake Freeman Cedar Ridge Bonanza 11 6:50:01 12.3, 11.1 11.71 35, 47, 59 (Avg:53)
6 Carol Major Bradali Najmul Fi Samar 12 6:52:00 12.8, 10.6 11.65 33, 44, 52 (Avg:48)
3 Jason Kirk Garnee Full Throttle 13 7:27:00 11.5, 9.9 10.74 37, 46, 59 (Avg:52)
12 Georgia Curry Mountain Breeze Mingha 14 7:28:00 11.6, 9.9 10.71 30, 39, 46 (Avg:42)
38 Madeline Cotton Scooter 15 8:21:00 10.2, 8.9 9.58 36, 44, 45 (Avg:44)
18 Neroli Mitchell- Cooper Ramalea Homer 16 8:36:00 10.5, 8.3 9.30 39, 45, 48 (Avg:46)
52 Chris Noonan Littlebanks I Candy 17 8:51:00 10.1, 8.1 9.04 37, 43, 48 (Avg:45)
53 Victoria Bonham Duray Djuan 18 8:51:01 10.1, 8.1 9.04 35, 41, 47 (Avg:44)
27 Rochelle Knihinicki Ky 19 9:18:00 9.5, 7.7 8.60 24, 31, 36 (Avg:33)
28 Allison Knihinicki Come Fly with Me 20 9:18:01 9.5, 7.7 8.60 39, 52, 60 (Avg:56)
40 Mette Sutton Tiendebah Esparda Moon 21 9:38:00 9.5, 7.3 8.30 33, 49, 51 (Avg:50)
22 Brett Willis Carlwood Park Austen Widthdrawn L2 0:00:00 - - 35, 43, 44 (Avg:43)
21 Debbie Pevy Burren-Dah Walter Lame L1 0:00:00 17.7 - 29, 40 (Avg:40)
Lightweight
23 Amanda Apperley Jon De Le Nissan 1 (BC) 5:06:00 17.7, 14.0 15.69 30, 44, 42 (Avg:43)
20 Leanne Holz Carlwood Park Frosty 2 5:57:00 15.0, 12.1 13.45 34, 36, 39 (Avg:37)
5 Marion Grove Wickwood Domanic 3 6:31:00 13.7, 11.1 12.28 31, 37, 44 (Avg:40)
51 Indigo Noonan Littlebanks Crystal Wings 4 6:34:00 10.9, 13.7 12.18 29, 43, 52 (Avg:47)
49 Monique Milton Littlebanks Dizzy 5 6:35:00 10.9, 13.7 12.15 34, 32, 45 (Avg:38)
9 Sue Todd Shakari Bear 6 6:52:00 12.8, 10.6 11.65 35, 39, 49 (Avg:44)
33 Shannon Hill Burren-dah Narla 7 7:47:00 11.4, 9.3 10.28 33, 41, 42 (Avg:41)
15 Kate Pilley Pancho 8 8:45:00 10.3, 8.1 9.14 34, 42, 39 (Avg:40)
16 Adele Sonter Aloha Zulm 9 8:45:01 10.3, 8.1 9.14 23, 29, 32 (Avg:30)
50 Leslee Burrell Larntainey Crystal Girl 10 9:22:00 9.8, 7.5 8.54 36, 46, 44 (Avg:45)
54 Wendy Jones Larntainey Gold 'N' Treasure 11 9:37:00 9.8, 7.2 8.32 40, 46, 54 (Avg:50)
Junior
47 Sam Duff Box Hill Pegasus 1 (BC) 6:40:00 12.3, 11.6 12.00 29, 36, 39 (Avg:37)
10 Tahnaya Mercieca Malleegrove Qaarma 2 9:37:00 9.8, 7.2 8.32 31, 47, 42 (Avg:44)